createdAt,value
2022-11-11T00:00:40.568Z,4.30
2022-11-11T00:03:29.699Z,4.97
2022-11-11T00:06:19.112Z,4.83
2022-11-11T00:09:09.332Z,5.23
2022-11-11T00:11:58.114Z,4.57
2022-11-11T00:14:46.892Z,3.57
2022-11-11T00:17:53.642Z,4.40
2022-11-11T00:20:59.958Z,3.37
2022-11-11T00:24:06.390Z,3.67
2022-11-11T00:26:56.732Z,4.57
2022-11-11T00:29:47.791Z,5.73
2022-11-11T00:32:36.599Z,3.77
2022-11-11T00:35:43.627Z,4.20
2022-11-11T00:42:23.616Z,4.13
2022-11-11T00:45:13.101Z,3.83
2022-11-11T00:48:19.764Z,5.37
2022-11-11T00:51:08.730Z,4.63
2022-11-11T00:53:57.624Z,3.13
2022-11-11T00:56:46.424Z,3.17
2022-11-11T00:59:36.494Z,6.70
2022-11-11T01:02:25.441Z,7.13
2022-11-11T01:05:14.281Z,5.80
2022-11-11T01:08:03.078Z,5.33
2022-11-11T01:10:51.910Z,4.67
2022-11-11T01:13:40.816Z,6.33
2022-11-11T01:16:31.043Z,3.90
2022-11-11T01:19:19.826Z,5.90
2022-11-11T01:22:08.653Z,7.77
2022-11-11T01:24:57.476Z,8.73
2022-11-11T01:27:46.286Z,8.87
2022-11-11T01:30:35.570Z,7.20
2022-11-11T01:33:25.718Z,3.83
2022-11-11T01:36:15.913Z,6.80
2022-11-11T01:39:05.240Z,6.80
2022-11-11T01:41:57.915Z,5.13
2022-11-11T01:44:50.041Z,6.87
2022-11-11T01:48:21.658Z,4.27
2022-11-11T01:51:03.577Z,4.67
2022-11-11T01:53:55.603Z,4.47
2022-11-11T01:56:45.926Z,6.53
2022-11-11T01:59:35.800Z,5.87
2022-11-11T02:02:27.101Z,4.63
2022-11-11T02:05:34.795Z,6.03
2022-11-11T02:08:34.073Z,7.10
2022-11-11T02:11:39.777Z,7.30
2022-11-11T02:14:39.854Z,5.37
2022-11-11T02:17:29.440Z,5.13
2022-11-11T02:20:21.285Z,6.83
2022-11-11T02:23:12.898Z,7.33
2022-11-11T02:26:04.511Z,4.70
2022-11-11T02:28:55.048Z,5.00
2022-11-11T02:31:44.135Z,8.13
2022-11-11T02:34:33.728Z,5.10
2022-11-11T02:37:23.679Z,5.07
2022-11-11T02:40:14.083Z,5.37
2022-11-11T02:43:04.322Z,3.57
2022-11-11T02:45:53.251Z,6.20
2022-11-11T02:48:42.262Z,3.73
2022-11-11T02:51:31.113Z,3.23
2022-11-11T02:54:19.997Z,8.90
2022-11-11T02:57:09.371Z,5.90
2022-11-11T03:00:01.305Z,4.53
2022-11-11T03:02:50.280Z,5.90
2022-11-11T03:05:39.299Z,3.70
2022-11-11T03:08:28.199Z,3.60
2022-11-11T03:11:27.807Z,7.93
2022-11-11T03:14:16.904Z,4.60
2022-11-11T03:17:24.940Z,3.73
2022-11-11T03:20:32.500Z,3.73
2022-11-11T03:23:21.613Z,4.57
2022-11-11T03:26:10.598Z,3.57
2022-11-11T03:28:59.546Z,4.00
2022-11-11T03:31:48.315Z,4.33
2022-11-11T03:34:38.597Z,7.83
2022-11-11T03:37:45.180Z,6.83
2022-11-11T03:40:34.237Z,4.67
2022-11-11T03:43:24.130Z,3.50
2022-11-11T03:46:13.041Z,4.43
2022-11-11T03:49:01.825Z,5.43
2022-11-11T03:51:51.970Z,4.40
2022-11-11T03:54:40.778Z,3.53
2022-11-11T03:57:32.753Z,4.23
2022-11-11T04:00:22.651Z,5.23
2022-11-11T04:03:30.810Z,4.40
2022-11-11T04:06:37.466Z,6.90
2022-11-11T04:09:45.487Z,4.73
2022-11-11T04:12:55.902Z,4.00
2022-11-11T04:16:02.365Z,3.80
2022-11-11T04:19:09.128Z,5.03
2022-11-11T04:21:57.932Z,4.93
2022-11-11T04:25:06.078Z,3.30
2022-11-11T04:28:13.389Z,4.33
2022-11-11T04:31:02.190Z,4.87
2022-11-11T04:33:50.974Z,3.20
2022-11-11T04:36:39.748Z,7.83
2022-11-11T04:39:46.191Z,3.60
2022-11-11T04:42:36.655Z,3.30
2022-11-11T04:45:35.947Z,3.10
2022-11-11T04:48:24.794Z,3.87
2022-11-11T04:51:13.621Z,4.47
2022-11-11T04:54:02.414Z,3.67
2022-11-11T04:56:50.418Z,3.53
2022-11-11T04:59:40.572Z,4.30
2022-11-11T05:02:47.043Z,3.23
2022-11-11T05:06:00.755Z,4.70
2022-11-11T05:08:55.986Z,6.70
2022-11-11T05:11:44.750Z,4.10
2022-11-11T05:14:51.032Z,6.70
2022-11-11T05:18:10.417Z,5.70
2022-11-11T05:21:16.759Z,5.07
2022-11-11T05:24:23.459Z,5.20
2022-11-11T05:27:12.360Z,6.23
2022-11-11T05:30:01.166Z,4.97
2022-11-11T05:32:51.547Z,2.70
2022-11-11T05:35:40.340Z,5.00
2022-11-11T05:38:30.098Z,3.47
2022-11-11T05:41:18.927Z,4.63
2022-11-11T05:44:07.794Z,6.60
2022-11-11T05:46:56.562Z,5.60
2022-11-11T05:49:46.784Z,4.00
2022-11-11T05:52:35.569Z,3.07
2022-11-11T05:55:24.388Z,3.63
2022-11-11T05:58:13.182Z,4.67
2022-11-11T06:01:01.997Z,5.17
2022-11-11T06:03:50.797Z,3.60
2022-11-11T06:06:41.014Z,2.97
2022-11-11T06:09:29.812Z,6.50
2022-11-11T06:12:18.568Z,4.90
2022-11-11T06:15:07.739Z,3.30
2022-11-11T06:17:56.523Z,3.53
2022-11-11T06:20:45.300Z,5.67
2022-11-11T06:23:35.381Z,11.80
2022-11-11T06:26:24.191Z,3.63
2022-11-11T06:29:13.015Z,4.40
2022-11-11T06:32:01.746Z,5.23
2022-11-11T06:34:50.515Z,5.67
2022-11-11T06:37:39.370Z,6.80
2022-11-11T06:40:30.654Z,6.60
2022-11-11T06:43:19.435Z,4.60
2022-11-11T06:46:08.555Z,6.27
2022-11-11T06:48:57.400Z,4.37
2022-11-11T06:51:46.201Z,3.27
2022-11-11T06:54:34.997Z,4.23
2022-11-11T06:57:25.541Z,5.10
2022-11-11T07:00:15.002Z,3.67
2022-11-11T07:03:03.758Z,4.13
2022-11-11T07:05:59.009Z,7.53
2022-11-11T07:08:48.214Z,2.97
2022-11-11T07:11:37.026Z,4.13
2022-11-11T07:14:27.601Z,5.50
2022-11-11T07:17:16.423Z,5.53
2022-11-11T07:20:06.008Z,3.67
2022-11-11T07:22:54.809Z,3.03
2022-11-11T07:25:45.059Z,3.87
2022-11-11T07:28:33.810Z,5.27
2022-11-11T07:31:23.921Z,3.40
2022-11-11T07:34:12.719Z,4.33
2022-11-11T07:37:01.572Z,3.23
2022-11-11T07:39:50.341Z,6.47
2022-11-11T07:42:39.507Z,5.53
2022-11-11T07:45:28.332Z,4.67
2022-11-11T07:48:18.439Z,4.90
2022-11-11T07:51:07.490Z,3.23
2022-11-11T07:53:56.287Z,3.77
2022-11-11T07:56:45.101Z,5.70
2022-11-11T07:59:33.887Z,3.10
2022-11-11T08:02:22.660Z,3.97
2022-11-11T08:05:13.303Z,3.80
2022-11-11T08:08:04.365Z,4.33
2022-11-11T08:10:55.130Z,4.23
2022-11-11T08:13:44.075Z,4.83
2022-11-11T08:16:32.950Z,2.80
2022-11-11T08:19:21.772Z,4.90
2022-11-11T08:22:11.895Z,1.90
2022-11-11T08:25:03.932Z,3.17
2022-11-11T08:27:58.308Z,4.67
2022-11-11T08:30:48.669Z,5.43
2022-11-11T08:33:37.658Z,3.80
2022-11-11T08:36:26.707Z,2.67
2022-11-11T08:39:16.860Z,3.80
2022-11-11T08:42:05.981Z,2.23
2022-11-11T08:44:54.737Z,6.80
2022-11-11T08:47:45.636Z,10.83
2022-11-11T08:50:34.435Z,5.80
2022-11-11T08:53:23.547Z,2.03
2022-11-11T08:56:13.905Z,2.10
2022-11-11T08:59:02.682Z,2.10
2022-11-11T09:01:51.470Z,4.20
2022-11-11T09:04:45.332Z,2.37
2022-11-11T09:07:35.229Z,4.50
2022-11-11T09:10:24.286Z,1.33
2022-11-11T09:13:14.422Z,1.93
2022-11-11T09:16:03.174Z,2.10
2022-11-11T09:18:51.926Z,2.50
2022-11-11T09:21:40.693Z,1.80
2022-11-11T09:24:29.448Z,2.10
2022-11-11T09:27:18.239Z,1.90
2022-11-11T09:30:09.246Z,3.27
2022-11-11T09:33:02.598Z,3.43
2022-11-11T09:35:51.362Z,1.37
2022-11-11T09:38:40.240Z,2.40
2022-11-11T09:41:35.912Z,2.67
2022-11-11T09:44:38.078Z,2.60
2022-11-11T09:47:30.725Z,2.13
2022-11-11T09:50:20.417Z,1.53
2022-11-11T09:53:13.117Z,4.80
2022-11-11T09:56:09.314Z,1.10
2022-11-11T09:59:08.960Z,3.43
2022-11-11T10:01:58.555Z,2.80
2022-11-11T10:04:51.289Z,3.97
2022-11-11T10:07:41.809Z,1.60
2022-11-11T10:10:34.015Z,2.07
2022-11-11T10:13:25.563Z,3.00
2022-11-11T10:16:19.395Z,2.10
2022-11-11T10:19:15.648Z,1.95
2022-11-11T10:22:13.047Z,1.77
2022-11-11T10:25:08.684Z,1.73
2022-11-11T10:27:58.634Z,4.28
2022-11-11T10:30:48.084Z,2.95
2022-11-11T10:33:40.820Z,2.83
2022-11-11T10:36:34.382Z,2.88
2022-11-11T10:39:31.770Z,3.20
2022-11-11T10:42:20.638Z,2.75
2022-11-11T10:45:12.703Z,3.20
2022-11-11T10:48:04.483Z,2.75
2022-11-11T10:50:55.295Z,2.00
2022-11-11T10:53:46.083Z,3.40
2022-11-11T10:56:39.179Z,4.68
2022-11-11T10:59:29.998Z,4.80
2022-11-11T11:02:21.712Z,1.77
2022-11-11T11:05:13.145Z,2.60
2022-11-11T11:08:07.704Z,1.77
2022-11-11T11:10:58.566Z,1.67
2022-11-11T11:13:51.932Z,2.38
2022-11-11T11:16:44.106Z,2.72
2022-11-11T11:19:33.418Z,1.75
2022-11-11T11:22:22.585Z,3.38
2022-11-11T11:25:12.280Z,1.67
2022-11-11T11:28:08.310Z,1.75
2022-11-11T11:31:02.375Z,3.40
2022-11-11T11:33:52.768Z,2.58
2022-11-11T11:36:41.562Z,2.63
2022-11-11T11:39:34.193Z,2.03
2022-11-11T11:42:33.095Z,2.72
2022-11-11T11:45:23.288Z,2.70
2022-11-11T11:48:34.952Z,4.00
2022-11-11T11:51:29.296Z,2.15
2022-11-11T11:54:23.312Z,3.95
2022-11-11T11:57:20.481Z,1.60
2022-11-11T12:00:16.167Z,1.92
2022-11-11T12:03:14.487Z,1.85
2022-11-11T12:06:09.490Z,1.35
2022-11-11T12:09:03.957Z,1.88
2022-11-11T12:11:55.827Z,2.05
2022-11-11T12:14:49.999Z,2.95
2022-11-11T12:17:44.936Z,1.17
2022-11-11T12:20:38.304Z,1.90
2022-11-11T12:23:47.151Z,1.30
2022-11-11T12:26:39.310Z,1.50
2022-11-11T12:29:35.271Z,1.88
2022-11-11T12:32:33.441Z,1.63
2022-11-11T12:35:30.018Z,2.75
2022-11-11T12:38:27.319Z,1.23
2022-11-11T12:41:22.043Z,1.23
2022-11-11T12:44:12.003Z,1.30
2022-11-11T12:47:08.526Z,2.60
2022-11-11T12:50:00.090Z,4.25
2022-11-11T12:52:57.014Z,1.55
2022-11-11T12:55:59.933Z,1.15
2022-11-11T12:58:53.688Z,1.83
2022-11-11T13:01:50.998Z,2.60
2022-11-11T13:04:51.087Z,19.20
2022-11-11T13:07:47.848Z,1.58
2022-11-11T13:10:42.490Z,1.25
2022-11-11T13:13:36.981Z,1.52
2022-11-11T13:16:28.198Z,1.63
2022-11-11T13:19:20.754Z,1.75
2022-11-11T13:22:13.537Z,2.15
2022-11-11T13:25:06.045Z,2.00
2022-11-11T13:27:57.039Z,1.48
2022-11-11T13:30:47.849Z,2.30
2022-11-11T13:33:40.729Z,1.58
2022-11-11T13:36:31.087Z,2.25
2022-11-11T13:39:28.810Z,1.75
2022-11-11T13:42:22.730Z,2.38
2022-11-11T13:45:28.505Z,2.03
2022-11-11T13:48:20.253Z,1.73
2022-11-11T13:51:23.318Z,2.03
2022-11-11T13:54:23.091Z,4.40
2022-11-11T13:57:19.930Z,1.50
2022-11-11T14:00:20.523Z,1.75
2022-11-11T14:03:24.527Z,2.22
2022-11-11T14:06:39.205Z,3.15
2022-11-11T14:09:46.636Z,1.60
2022-11-11T14:12:37.090Z,1.75
2022-11-11T14:15:36.611Z,1.67
2022-11-11T14:18:49.328Z,3.10
2022-11-11T14:21:58.314Z,1.60
2022-11-11T14:24:48.677Z,2.95
2022-11-11T14:27:37.479Z,2.65
2022-11-11T14:30:35.963Z,2.23
2022-11-11T14:33:31.677Z,1.97
2022-11-11T14:36:23.854Z,1.60
2022-11-11T14:39:19.486Z,3.17
2022-11-11T14:42:29.785Z,1.67
2022-11-11T14:45:37.145Z,1.60
2022-11-11T14:48:44.758Z,1.83
2022-11-11T14:51:47.686Z,2.13
2022-11-11T14:54:39.019Z,1.60
2022-11-11T14:57:31.013Z,2.27
2022-11-11T15:00:21.533Z,4.17
2022-11-11T15:03:12.634Z,1.63
2022-11-11T15:06:03.655Z,2.40
2022-11-11T15:08:55.970Z,2.10
2022-11-11T15:11:50.635Z,2.77
2022-11-11T15:14:44.045Z,5.63
2022-11-11T15:17:38.094Z,3.47
2022-11-11T15:20:47.734Z,5.30
2022-11-11T15:23:40.029Z,4.07
2022-11-11T15:26:31.849Z,3.37
2022-11-11T15:29:43.762Z,2.70
2022-11-11T15:32:37.335Z,2.70
2022-11-11T15:35:32.034Z,2.27
2022-11-11T15:38:21.311Z,3.13
2022-11-11T15:41:22.300Z,3.83
2022-11-11T15:44:13.888Z,2.60
2022-11-11T15:47:05.006Z,2.93
2022-11-11T15:49:53.804Z,9.03
2022-11-11T15:52:42.580Z,3.70
2022-11-11T15:55:32.535Z,3.57
2022-11-11T15:58:27.226Z,3.60
2022-11-11T16:01:17.301Z,3.87
2022-11-11T16:04:27.793Z,4.47
2022-11-11T16:07:22.133Z,8.50
2022-11-11T16:10:14.926Z,8.37
2022-11-11T16:13:06.697Z,5.33
2022-11-11T16:15:57.062Z,8.40
2022-11-11T16:18:47.820Z,5.23
2022-11-11T16:21:40.488Z,5.53
2022-11-11T16:24:32.380Z,5.07
2022-11-11T16:27:22.544Z,4.37
2022-11-11T16:30:16.723Z,9.73
2022-11-11T16:33:06.857Z,4.70
2022-11-11T16:35:55.716Z,3.20
2022-11-11T16:38:45.898Z,3.43
2022-11-11T16:41:41.406Z,7.47
2022-11-11T16:44:35.041Z,5.37
2022-11-11T16:47:44.491Z,5.03
2022-11-11T16:50:33.345Z,4.83
2022-11-11T16:53:28.197Z,8.50
2022-11-11T16:56:22.119Z,4.67
2022-11-11T16:59:13.125Z,4.87
2022-11-11T17:02:01.979Z,3.20
2022-11-11T17:04:51.902Z,4.40
2022-11-11T17:07:41.534Z,5.07
2022-11-11T17:10:30.394Z,5.27
2022-11-11T17:13:20.539Z,3.97
2022-11-11T17:16:09.513Z,4.50
2022-11-11T17:19:00.872Z,6.57
2022-11-11T17:21:49.847Z,8.20
2022-11-11T17:24:38.683Z,6.23
2022-11-11T17:27:30.566Z,7.47
2022-11-11T17:30:20.896Z,7.53
2022-11-11T17:33:09.701Z,6.13
2022-11-11T17:36:01.012Z,11.87
2022-11-11T17:38:49.804Z,6.70
2022-11-11T17:41:38.644Z,7.73
2022-11-11T17:44:27.402Z,8.60
2022-11-11T17:47:17.589Z,9.10
2022-11-11T17:50:06.758Z,7.60
2022-11-11T17:52:57.337Z,7.03
2022-11-11T17:55:46.136Z,8.40
2022-11-11T17:58:40.763Z,7.90
2022-11-11T18:01:30.023Z,8.77
2022-11-11T18:04:20.184Z,8.17
2022-11-11T18:07:09.261Z,6.90
2022-11-11T18:09:58.536Z,7.20
2022-11-11T18:12:47.331Z,7.17
2022-11-11T18:15:37.011Z,10.10
2022-11-11T18:18:25.785Z,6.50
2022-11-11T18:21:15.932Z,8.97
2022-11-11T18:24:06.662Z,6.57
2022-11-11T18:26:55.504Z,5.93
2022-11-11T18:29:44.289Z,7.53
2022-11-11T18:32:33.109Z,6.13
2022-11-11T18:35:21.897Z,8.30
2022-11-11T18:38:12.051Z,7.43
2022-11-11T18:41:04.841Z,8.50
2022-11-11T18:43:54.131Z,10.90
2022-11-11T18:46:42.970Z,7.80
2022-11-11T18:49:31.725Z,7.87
2022-11-11T18:52:20.498Z,7.73
2022-11-11T18:55:10.966Z,7.47
2022-11-11T18:57:59.732Z,13.27
2022-11-11T19:00:48.516Z,9.00
2022-11-11T19:03:37.515Z,9.70
2022-11-11T19:06:26.861Z,10.37
2022-11-11T19:09:15.905Z,14.30
2022-11-11T19:12:06.070Z,11.87
2022-11-11T19:14:54.844Z,14.53
2022-11-11T19:17:43.588Z,14.33
2022-11-11T19:20:32.359Z,17.73
2022-11-11T19:23:21.139Z,15.27
2022-11-11T19:26:10.147Z,12.63
2022-11-11T19:29:01.696Z,16.37
2022-11-11T19:31:50.500Z,15.60
2022-11-11T19:34:39.352Z,15.13
2022-11-11T19:37:28.206Z,14.70
2022-11-11T19:40:17.087Z,13.10
2022-11-11T19:43:05.850Z,13.33
2022-11-11T19:45:55.980Z,15.37
2022-11-11T19:48:44.834Z,14.87
2022-11-11T19:51:33.647Z,17.27
2022-11-11T19:54:22.376Z,13.80
2022-11-11T19:57:11.148Z,14.53
2022-11-11T19:59:59.933Z,15.30
2022-11-11T20:02:50.540Z,14.60
2022-11-11T20:05:39.409Z,17.50
2022-11-11T20:08:28.203Z,18.23
2022-11-11T20:11:17.237Z,16.90
2022-11-11T20:14:06.118Z,18.40
2022-11-11T20:16:54.937Z,15.30
2022-11-11T20:19:45.059Z,16.80
2022-11-11T20:22:33.841Z,17.27
2022-11-11T20:25:22.788Z,18.27
2022-11-11T20:28:11.609Z,20.50
2022-11-11T20:31:00.371Z,17.07
2022-11-11T20:33:50.900Z,16.87
2022-11-11T20:36:41.039Z,19.80
2022-11-11T20:39:29.817Z,20.10
2022-11-11T20:42:18.619Z,17.30
2022-11-11T20:45:12.166Z,14.47
2022-11-11T20:48:01.310Z,14.23
2022-11-11T20:50:50.119Z,14.50
2022-11-11T20:53:40.410Z,18.27
2022-11-11T20:56:29.378Z,16.57
2022-11-11T20:59:18.203Z,16.43
2022-11-11T21:02:06.980Z,13.40
2022-11-11T21:04:55.818Z,13.53
2022-11-11T21:07:44.623Z,15.80
2022-11-11T21:10:34.758Z,14.03
2022-11-11T21:13:23.785Z,12.93
2022-11-11T21:16:17.121Z,12.50
2022-11-11T21:19:06.496Z,12.80
2022-11-11T21:21:55.648Z,18.70
2022-11-11T21:24:44.413Z,11.63
2022-11-11T21:27:34.562Z,14.93
2022-11-11T21:30:23.350Z,14.93
2022-11-11T21:33:12.442Z,14.47
2022-11-11T21:36:06.262Z,20.47
2022-11-11T21:38:55.508Z,16.77
2022-11-11T21:41:44.435Z,18.37
2022-11-11T21:44:34.571Z,19.20
2022-11-11T21:47:23.387Z,17.17
2022-11-11T21:50:12.165Z,19.50
2022-11-11T21:53:01.007Z,19.30
2022-11-11T21:55:49.812Z,17.50
2022-11-11T21:58:38.735Z,18.83
2022-11-11T22:01:30.617Z,15.50
2022-11-11T22:04:19.849Z,16.97
2022-11-11T22:07:08.637Z,17.47
2022-11-11T22:09:57.447Z,16.70
2022-11-11T22:12:46.223Z,20.60
2022-11-11T22:15:38.243Z,16.43
2022-11-11T22:18:28.664Z,17.80
2022-11-11T22:21:20.195Z,17.03
2022-11-11T22:24:10.067Z,17.00
2022-11-11T22:26:58.811Z,16.67
2022-11-11T22:29:47.558Z,20.13
2022-11-11T22:32:36.475Z,16.97
2022-11-11T22:35:26.605Z,16.03
2022-11-11T22:38:15.754Z,14.53
2022-11-11T22:41:05.330Z,13.20
2022-11-11T22:44:01.869Z,19.10
2022-11-11T22:46:50.893Z,18.50
2022-11-11T22:49:39.654Z,13.63
2022-11-11T22:52:29.808Z,13.73
2022-11-11T22:55:18.573Z,13.67
2022-11-11T22:58:07.369Z,18.93
2022-11-11T23:00:56.162Z,15.50
2022-11-11T23:03:45.827Z,14.23
2022-11-11T23:06:36.017Z,13.90
2022-11-11T23:09:26.413Z,17.83
2022-11-11T23:12:15.185Z,16.20
2022-11-11T23:15:03.962Z,15.10
2022-11-11T23:17:52.746Z,17.43
2022-11-11T23:20:41.621Z,12.10
2022-11-11T23:23:30.627Z,15.20
2022-11-11T23:26:22.086Z,13.80
2022-11-11T23:29:10.912Z,15.00
2022-11-11T23:31:59.713Z,14.30
2022-11-11T23:34:48.474Z,11.43
2022-11-11T23:37:37.252Z,12.43
2022-11-11T23:40:26.048Z,15.87
2022-11-11T23:43:16.185Z,13.70
2022-11-11T23:46:05.328Z,13.63
2022-11-11T23:48:54.114Z,15.30
2022-11-11T23:51:42.897Z,13.27
2022-11-11T23:54:31.664Z,14.40
2022-11-11T23:57:20.412Z,14.23
